createdAt,value
2018-06-09T00:00:48.248Z,26.10
2018-06-09T00:03:16.339Z,26.20
2018-06-09T00:05:44.444Z,26.20
2018-06-09T00:08:12.527Z,26.30
2018-06-09T00:10:40.612Z,26.30
2018-06-09T00:13:08.687Z,26.30
2018-06-09T00:15:36.776Z,26.40
2018-06-09T00:18:04.831Z,26.30
2018-06-09T00:20:32.902Z,26.20
2018-06-09T00:23:00.960Z,26.10
2018-06-09T00:25:29.066Z,26.10
2018-06-09T00:27:57.116Z,25.90
2018-06-09T00:30:25.232Z,25.90
2018-06-09T00:32:53.300Z,26.00
2018-06-09T00:35:21.375Z,26.10
2018-06-09T00:37:49.521Z,26.10
2018-06-09T00:40:17.645Z,26.20
2018-06-09T00:42:45.804Z,26.20
2018-06-09T00:45:13.887Z,26.20
2018-06-09T00:47:41.975Z,26.30
2018-06-09T00:50:10.051Z,26.30
2018-06-09T00:52:38.115Z,26.30
2018-06-09T00:55:06.186Z,26.30
2018-06-09T00:57:34.247Z,26.20
2018-06-09T01:00:02.335Z,26.30
2018-06-09T01:02:30.405Z,26.30
2018-06-09T01:04:58.497Z,26.30
2018-06-09T01:07:26.602Z,26.30
2018-06-09T01:09:54.683Z,26.30
2018-06-09T01:12:22.747Z,26.30
2018-06-09T01:14:50.848Z,26.20
2018-06-09T01:17:18.933Z,26.20
2018-06-09T01:19:47.021Z,26.20
2018-06-09T01:22:15.118Z,26.10
2018-06-09T01:24:43.210Z,26.10
2018-06-09T01:27:11.299Z,26.10
2018-06-09T01:29:39.384Z,26.10
2018-06-09T01:32:07.547Z,26.00
2018-06-09T01:34:35.617Z,26.10
2018-06-09T01:37:03.719Z,26.20
2018-06-09T01:39:31.797Z,26.20
2018-06-09T01:41:59.880Z,26.30
2018-06-09T01:44:27.942Z,26.30
2018-06-09T01:46:56.031Z,26.30
2018-06-09T01:49:24.116Z,26.30
2018-06-09T01:51:52.219Z,26.30
2018-06-09T01:54:20.295Z,26.30
2018-06-09T01:56:48.379Z,26.30
2018-06-09T01:59:16.469Z,26.30
2018-06-09T02:01:44.559Z,26.20
2018-06-09T02:04:12.679Z,26.30
2018-06-09T02:06:40.765Z,26.20
2018-06-09T02:09:09.540Z,26.20
2018-06-09T02:11:37.656Z,26.20
2018-06-09T02:14:05.759Z,26.20
2018-06-09T02:16:33.830Z,26.20
2018-06-09T02:19:02.165Z,26.30
2018-06-09T02:21:30.251Z,26.20
2018-06-09T02:23:58.340Z,26.20
2018-06-09T02:26:26.419Z,26.20
2018-06-09T02:28:54.527Z,26.20
2018-06-09T02:31:22.655Z,26.20
2018-06-09T02:33:50.867Z,26.30
2018-06-09T02:36:18.955Z,26.20
2018-06-09T02:38:47.030Z,26.20
2018-06-09T02:41:15.093Z,26.20
2018-06-09T02:43:43.183Z,26.20
2018-06-09T02:46:11.269Z,26.20
2018-06-09T02:48:39.344Z,26.20
2018-06-09T02:51:07.448Z,26.20
2018-06-09T02:53:35.511Z,26.20
2018-06-09T02:56:03.584Z,26.20
2018-06-09T02:58:31.692Z,26.10
2018-06-09T03:00:59.772Z,26.10
2018-06-09T03:03:27.867Z,26.20
2018-06-09T03:08:23.911Z,26.10
2018-06-09T03:10:52.024Z,26.20
2018-06-09T03:13:20.078Z,26.10
2018-06-09T03:15:48.151Z,26.20
2018-06-09T03:18:16.235Z,26.10
2018-06-09T03:20:44.328Z,26.10
2018-06-09T03:23:12.406Z,26.10
2018-06-09T03:25:40.495Z,26.00
2018-06-09T03:28:08.567Z,25.90
2018-06-09T03:30:36.685Z,25.90
2018-06-09T03:33:04.787Z,25.90
2018-06-09T03:35:32.865Z,26.00
2018-06-09T03:38:00.934Z,26.00
2018-06-09T03:40:29.168Z,26.10
2018-06-09T03:42:57.239Z,26.10
2018-06-09T03:45:25.310Z,26.10
2018-06-09T03:47:53.395Z,26.00
2018-06-09T03:50:21.468Z,26.00
2018-06-09T03:52:49.547Z,26.10
2018-06-09T03:55:17.631Z,26.10
2018-06-09T03:57:45.713Z,26.00
2018-06-09T04:00:13.791Z,25.90
2018-06-09T04:02:41.854Z,25.80
2018-06-09T04:05:09.911Z,25.80
2018-06-09T04:07:38.015Z,25.70
2018-06-09T04:10:06.103Z,25.60
2018-06-09T04:12:34.178Z,25.70
2018-06-09T04:15:02.266Z,25.70
2018-06-09T04:17:30.351Z,25.70
2018-06-09T04:19:58.454Z,25.60
2018-06-09T04:22:26.771Z,25.60
2018-06-09T04:24:54.870Z,25.50
2018-06-09T04:27:22.974Z,25.40
2018-06-09T04:29:51.086Z,25.50
2018-06-09T04:32:19.164Z,25.50
2018-06-09T04:34:47.264Z,25.50
2018-06-09T04:37:15.370Z,25.50
2018-06-09T04:39:43.477Z,25.50
2018-06-09T04:42:12.479Z,25.50
2018-06-09T04:44:41.267Z,25.40
2018-06-09T04:47:09.369Z,25.30
2018-06-09T04:49:37.469Z,25.20
2018-06-09T04:52:05.588Z,25.20
2018-06-09T04:54:33.711Z,25.20
2018-06-09T04:57:01.814Z,25.10
2018-06-09T04:59:29.918Z,25.20
2018-06-09T05:01:58.060Z,25.10
2018-06-09T05:04:26.543Z,25.10
2018-06-09T05:06:54.672Z,25.10
2018-06-09T05:09:24.596Z,25.10
2018-06-09T05:11:52.676Z,25.10
2018-06-09T05:14:21.504Z,25.10
2018-06-09T05:16:49.649Z,25.10
2018-06-09T05:19:18.339Z,25.20
2018-06-09T05:21:47.035Z,25.10
2018-06-09T05:24:16.402Z,25.00
2018-06-09T05:26:44.640Z,25.00
2018-06-09T05:29:12.979Z,24.90
2018-06-09T05:31:45.777Z,24.90
2018-06-09T05:34:14.640Z,24.90
2018-06-09T05:36:43.738Z,24.90
2018-06-09T05:39:11.937Z,24.90
2018-06-09T05:41:40.047Z,24.90
2018-06-09T05:44:12.856Z,24.90
2018-06-09T05:46:41.732Z,24.90
2018-06-09T05:49:10.205Z,24.80
2018-06-09T05:51:38.565Z,24.90
2018-06-09T05:54:07.381Z,24.90
2018-06-09T05:56:35.479Z,24.90
2018-06-09T05:59:03.825Z,24.90
2018-06-09T06:01:31.979Z,25.00
2018-06-09T06:04:00.131Z,25.00
2018-06-09T06:06:28.226Z,25.00
2018-06-09T06:08:56.311Z,25.00
2018-06-09T06:11:25.037Z,25.10
2018-06-09T06:13:53.395Z,25.10
2018-06-09T06:16:21.563Z,25.20
2018-06-09T06:18:49.685Z,25.30
2018-06-09T06:21:17.772Z,25.30
2018-06-09T06:23:45.882Z,25.30
2018-06-09T06:26:13.955Z,25.30
2018-06-09T06:28:42.024Z,25.40
2018-06-09T06:31:10.105Z,25.40
2018-06-09T06:33:38.399Z,25.30
2018-06-09T06:36:06.474Z,25.20
2018-06-09T06:38:34.631Z,25.20
2018-06-09T06:41:03.094Z,25.20
2018-06-09T06:43:31.155Z,25.20
2018-06-09T06:45:59.482Z,25.20
2018-06-09T06:48:27.544Z,25.10
2018-06-09T06:50:55.618Z,25.10
2018-06-09T06:53:23.680Z,25.10
2018-06-09T06:55:52.008Z,25.20
2018-06-09T06:58:20.086Z,25.30
2018-06-09T07:00:48.175Z,25.40
2018-06-09T07:05:44.111Z,25.50
2018-06-09T07:08:12.170Z,25.50
2018-06-09T07:10:40.381Z,25.50
2018-06-09T07:13:08.438Z,25.40
2018-06-09T07:15:36.506Z,25.30
2018-06-09T07:18:04.570Z,25.30
2018-06-09T07:23:00.575Z,25.20
2018-06-09T07:25:28.626Z,25.30
2018-06-09T07:27:56.906Z,25.40
2018-06-09T07:30:25.062Z,25.40
2018-06-09T07:32:53.107Z,25.30
2018-06-09T07:35:21.403Z,25.30
2018-06-09T07:37:49.707Z,25.40
2018-06-09T07:40:17.870Z,25.40
2018-06-09T07:42:45.938Z,25.40
2018-06-09T07:45:14.038Z,25.40
2018-06-09T07:47:42.107Z,25.40
2018-06-09T07:50:10.162Z,25.50
2018-06-09T07:52:38.222Z,25.50
2018-06-09T07:55:06.288Z,25.50
2018-06-09T07:57:34.344Z,25.50
2018-06-09T08:00:02.703Z,25.40
2018-06-09T08:02:30.755Z,25.40
2018-06-09T08:04:58.842Z,25.40
2018-06-09T08:07:26.898Z,25.40
2018-06-09T08:09:55.035Z,25.40
2018-06-09T08:12:23.079Z,25.40
2018-06-09T08:14:51.447Z,25.40
2018-06-09T08:17:19.523Z,25.30
2018-06-09T08:19:47.592Z,25.40
2018-06-09T08:22:15.663Z,25.40
2018-06-09T08:24:44.018Z,25.50
2018-06-09T08:27:12.094Z,25.50
2018-06-09T08:29:40.146Z,25.50
2018-06-09T08:32:08.218Z,25.50
2018-06-09T08:34:36.585Z,25.60
2018-06-09T08:37:04.651Z,25.70
2018-06-09T08:39:32.723Z,25.80
2018-06-09T08:42:00.844Z,25.80
2018-06-09T08:44:28.886Z,25.80
2018-06-09T08:46:56.987Z,25.80
2018-06-09T08:49:25.359Z,25.80
2018-06-09T08:51:53.424Z,25.80
2018-06-09T08:54:21.486Z,25.80
2018-06-09T08:56:49.590Z,25.80
2018-06-09T08:59:17.610Z,25.80
2018-06-09T09:01:45.979Z,25.80
2018-06-09T09:04:14.043Z,25.80
2018-06-09T09:06:42.115Z,25.70
2018-06-09T09:09:10.179Z,25.60
2018-06-09T09:11:38.254Z,25.70
2018-06-09T09:14:06.850Z,25.70
2018-06-09T09:19:02.834Z,25.70
2018-06-09T09:21:31.216Z,25.70
2018-06-09T09:23:59.259Z,25.80
2018-06-09T09:26:27.566Z,25.90
2018-06-09T09:28:55.858Z,25.90
2018-06-09T09:31:24.198Z,26.00
2018-06-09T09:33:52.256Z,26.10
2018-06-09T09:36:20.318Z,26.10
2018-06-09T09:38:48.623Z,26.10
2018-06-09T09:41:16.686Z,26.10
2018-06-09T09:43:44.731Z,26.20
2018-06-09T09:46:13.077Z,26.20
2018-06-09T09:48:41.123Z,26.20
2018-06-09T09:51:09.196Z,26.30
2018-06-09T09:53:37.234Z,26.30
2018-06-09T09:56:05.731Z,26.30
2018-06-09T09:58:34.079Z,26.30
2018-06-09T10:01:02.141Z,26.30
2018-06-09T10:03:30.202Z,26.30
2018-06-09T10:05:58.282Z,26.40
2018-06-09T10:08:26.354Z,26.40
2018-06-09T10:10:54.406Z,26.40
2018-06-09T10:13:22.496Z,26.50
2018-06-09T10:15:50.575Z,26.50
2018-06-09T10:18:18.649Z,26.50
2018-06-09T10:20:47.037Z,26.60
2018-06-09T10:23:15.139Z,26.60
2018-06-09T10:25:43.211Z,26.60
2018-06-09T10:28:11.291Z,26.60
2018-06-09T10:30:39.359Z,26.60
2018-06-09T10:33:07.426Z,26.60
2018-06-09T10:35:35.490Z,26.60
2018-06-09T10:38:03.595Z,26.70
2018-06-09T10:40:31.662Z,26.80
2018-06-09T10:42:59.746Z,26.80
2018-06-09T10:45:27.823Z,26.80
2018-06-09T10:47:55.905Z,26.80
2018-06-09T10:50:23.959Z,26.80
2018-06-09T10:52:52.043Z,26.70
2018-06-09T10:55:20.219Z,26.70
2018-06-09T10:57:48.305Z,26.70
2018-06-09T11:00:16.374Z,26.80
2018-06-09T11:02:44.509Z,26.80
2018-06-09T11:05:12.574Z,26.80
2018-06-09T11:07:40.667Z,26.80
2018-06-09T11:10:08.792Z,26.80
2018-06-09T11:12:36.807Z,26.80
2018-06-09T11:15:04.880Z,26.80
2018-06-09T11:17:32.978Z,26.80
2018-06-09T11:20:01.036Z,26.80
2018-06-09T11:22:29.090Z,26.80
2018-06-09T11:24:57.157Z,26.80
2018-06-09T11:27:25.235Z,26.80
2018-06-09T11:29:53.605Z,26.80
2018-06-09T11:32:21.677Z,26.80
2018-06-09T11:34:49.739Z,26.80
2018-06-09T11:37:17.798Z,26.90
2018-06-09T11:39:45.850Z,26.80
2018-06-09T11:42:13.915Z,26.90
2018-06-09T11:44:41.970Z,26.80
2018-06-09T11:47:10.076Z,26.90
2018-06-09T11:49:38.106Z,26.90
2018-06-09T11:52:06.422Z,26.90
2018-06-09T11:54:34.702Z,26.90
2018-06-09T11:57:02.878Z,26.90
2018-06-09T11:59:30.943Z,26.90
2018-06-09T12:01:59.027Z,26.90
2018-06-09T12:04:27.111Z,26.90
2018-06-09T12:06:55.426Z,26.90
2018-06-09T12:09:23.507Z,27.00
2018-06-09T12:11:51.562Z,27.00
2018-06-09T12:14:19.634Z,27.00
2018-06-09T12:16:47.945Z,27.00
2018-06-09T12:19:16.015Z,27.00
2018-06-09T12:21:44.066Z,27.00
2018-06-09T12:24:12.150Z,27.00
2018-06-09T12:26:40.750Z,27.00
2018-06-09T12:29:08.811Z,27.00
2018-06-09T12:31:37.141Z,27.10
2018-06-09T12:34:05.206Z,27.10
2018-06-09T12:36:33.267Z,27.10
2018-06-09T12:39:01.356Z,27.00
2018-06-09T12:41:29.405Z,27.00
2018-06-09T12:43:57.951Z,27.00
2018-06-09T12:46:26.118Z,27.00
2018-06-09T12:48:54.178Z,27.10
2018-06-09T12:51:22.455Z,27.10
2018-06-09T12:53:50.523Z,27.10
2018-06-09T12:56:18.567Z,27.10
2018-06-09T12:58:46.625Z,27.10
2018-06-09T13:01:14.674Z,27.10
2018-06-09T13:03:43.058Z,27.10
2018-06-09T13:06:11.110Z,27.10
2018-06-09T13:08:39.179Z,27.10
2018-06-09T13:11:07.286Z,27.10
2018-06-09T13:13:35.372Z,27.20
2018-06-09T13:16:03.670Z,27.20
2018-06-09T13:18:31.742Z,27.20
2018-06-09T13:20:59.810Z,27.20
2018-06-09T13:23:27.886Z,27.20
2018-06-09T13:25:55.945Z,27.20
2018-06-09T13:28:24.015Z,27.20
2018-06-09T13:30:52.394Z,27.20
2018-06-09T13:33:20.464Z,27.20
2018-06-09T13:35:48.576Z,27.30
2018-06-09T13:38:16.605Z,27.30
2018-06-09T13:40:45.003Z,27.30
2018-06-09T13:43:13.073Z,27.30
2018-06-09T13:45:41.138Z,27.30
2018-06-09T13:48:09.215Z,27.30
2018-06-09T13:50:37.282Z,27.30
2018-06-09T13:53:05.355Z,27.30
2018-06-09T13:55:33.426Z,27.40
2018-06-09T13:58:01.555Z,27.30
2018-06-09T14:00:29.629Z,27.40
2018-06-09T14:02:57.695Z,27.40
2018-06-09T14:05:25.770Z,27.40
2018-06-09T14:07:53.843Z,27.40
2018-06-09T14:12:49.834Z,27.40
2018-06-09T14:15:17.910Z,27.40
2018-06-09T14:17:46.042Z,27.40
2018-06-09T14:20:14.106Z,27.40
2018-06-09T14:22:42.198Z,27.40
2018-06-09T14:25:10.274Z,27.40
2018-06-09T14:27:38.334Z,27.40
2018-06-09T14:30:06.419Z,27.40
2018-06-09T14:32:34.483Z,27.40
2018-06-09T14:35:02.556Z,27.40
2018-06-09T14:37:30.623Z,27.40
2018-06-09T14:39:58.699Z,27.40
2018-06-09T14:42:26.766Z,27.40
2018-06-09T14:44:54.837Z,27.40
2018-06-09T14:47:22.911Z,27.40
2018-06-09T14:49:50.990Z,27.50
2018-06-09T14:52:19.044Z,27.40
2018-06-09T14:54:47.118Z,27.50
2018-06-09T14:57:15.194Z,27.50
2018-06-09T14:59:43.266Z,27.50
2018-06-09T15:02:11.338Z,27.50
2018-06-09T15:04:39.414Z,27.50
2018-06-09T15:07:07.491Z,27.50
2018-06-09T15:09:35.579Z,27.50
2018-06-09T15:12:04.113Z,27.50
2018-06-09T15:14:32.178Z,27.50
2018-06-09T15:17:00.235Z,27.50
2018-06-09T15:19:28.553Z,27.50
2018-06-09T15:21:56.684Z,27.50
2018-06-09T15:24:24.722Z,27.50
2018-06-09T15:26:53.239Z,27.50
2018-06-09T15:29:21.571Z,27.50
2018-06-09T15:31:49.648Z,27.50
2018-06-09T15:34:17.690Z,27.50
2018-06-09T15:36:45.756Z,27.50
2018-06-09T15:39:13.855Z,27.50
2018-06-09T15:41:42.158Z,27.50
2018-06-09T15:44:10.203Z,27.50
2018-06-09T15:46:38.336Z,27.50
2018-06-09T15:49:06.579Z,27.50
2018-06-09T15:51:34.886Z,27.50
2018-06-09T15:54:03.258Z,27.40
2018-06-09T15:56:31.607Z,27.40
2018-06-09T15:58:59.902Z,27.40
2018-06-09T16:01:27.958Z,27.40
2018-06-09T16:03:56.007Z,27.40
2018-06-09T16:06:24.071Z,27.50
2018-06-09T16:08:52.145Z,27.40
2018-06-09T16:11:20.203Z,27.40
2018-06-09T16:13:48.278Z,27.40
2018-06-09T16:16:16.354Z,27.40
2018-06-09T16:18:44.418Z,27.40
2018-06-09T16:21:12.951Z,27.40
2018-06-09T16:23:41.018Z,27.40
2018-06-09T16:26:09.091Z,27.40
2018-06-09T16:28:37.162Z,27.40
2018-06-09T16:31:05.394Z,27.40
2018-06-09T16:33:33.462Z,27.40
2018-06-09T16:36:01.553Z,27.40
2018-06-09T16:38:29.626Z,27.40
2018-06-09T16:40:57.735Z,27.40
2018-06-09T16:43:25.792Z,27.40
2018-06-09T16:45:53.867Z,27.40
2018-06-09T16:48:21.939Z,27.30
2018-06-09T16:50:50.019Z,27.30
2018-06-09T16:53:18.083Z,27.30
2018-06-09T16:55:46.158Z,27.30
2018-06-09T16:58:14.236Z,27.30
2018-06-09T17:00:42.539Z,27.30
2018-06-09T17:03:10.602Z,27.30
2018-06-09T17:05:38.692Z,27.30
2018-06-09T17:08:06.774Z,27.20
2018-06-09T17:10:34.842Z,27.20
2018-06-09T17:13:02.926Z,27.30
2018-06-09T17:15:30.978Z,27.30
2018-06-09T17:17:59.030Z,27.20
2018-06-09T17:20:27.090Z,27.20
2018-06-09T17:22:55.174Z,27.20
2018-06-09T17:25:23.226Z,27.20
2018-06-09T17:27:51.290Z,27.20
2018-06-09T17:30:19.358Z,27.20
2018-06-09T17:32:47.434Z,27.20
2018-06-09T17:35:15.488Z,27.20
2018-06-09T17:37:43.800Z,27.20
2018-06-09T17:40:11.855Z,27.20
2018-06-09T17:42:39.906Z,27.20
2018-06-09T17:45:07.979Z,27.20
2018-06-09T17:47:36.046Z,27.20
2018-06-09T17:50:04.336Z,27.20
2018-06-09T17:52:32.394Z,27.20
2018-06-09T17:55:00.447Z,27.20
2018-06-09T17:57:28.505Z,27.20
2018-06-09T17:59:56.554Z,27.20
2018-06-09T18:02:24.965Z,27.20
2018-06-09T18:04:53.274Z,27.20
2018-06-09T18:07:21.387Z,27.10
2018-06-09T18:09:49.438Z,27.10
2018-06-09T18:12:17.519Z,27.10
2018-06-09T18:14:45.566Z,27.10
2018-06-09T18:17:13.626Z,27.10
2018-06-09T18:19:41.687Z,27.10
2018-06-09T18:22:10.003Z,27.10
2018-06-09T18:24:38.379Z,27.10
2018-06-09T18:27:06.451Z,27.10
2018-06-09T18:29:34.511Z,27.10
2018-06-09T18:32:02.819Z,27.10
2018-06-09T18:34:30.866Z,27.10
2018-06-09T18:36:58.970Z,27.10
2018-06-09T18:39:27.038Z,27.10
2018-06-09T18:41:55.157Z,27.20
2018-06-09T18:44:23.215Z,27.10
2018-06-09T18:46:51.293Z,27.10
2018-06-09T18:49:19.359Z,27.20
2018-06-09T18:51:47.432Z,27.20
2018-06-09T18:54:15.922Z,27.20
2018-06-09T18:56:44.015Z,27.10
2018-06-09T18:59:12.106Z,27.10
2018-06-09T19:01:40.331Z,27.10
2018-06-09T19:04:08.415Z,27.10
2018-06-09T19:06:36.758Z,27.10
2018-06-09T19:09:07.598Z,27.10
2018-06-09T19:11:35.798Z,27.00
2018-06-09T19:14:04.464Z,27.00
2018-06-09T19:16:32.598Z,26.90
2018-06-09T19:19:00.841Z,27.00
2018-06-09T19:21:28.902Z,27.00
2018-06-09T19:23:56.982Z,27.00
2018-06-09T19:26:25.046Z,27.00
2018-06-09T19:28:53.197Z,27.00
2018-06-09T19:31:21.291Z,27.00
2018-06-09T19:33:49.369Z,27.00
2018-06-09T19:36:17.450Z,26.90
2018-06-09T19:38:45.522Z,26.90
2018-06-09T19:41:13.831Z,27.00
2018-06-09T19:43:42.021Z,27.00
2018-06-09T19:46:10.354Z,26.90
2018-06-09T19:48:38.435Z,27.00
2018-06-09T19:51:06.905Z,26.90
2018-06-09T19:53:34.986Z,26.90
2018-06-09T19:56:03.053Z,27.00
2018-06-09T19:58:31.123Z,27.00
2018-06-09T20:00:59.186Z,27.00
2018-06-09T20:03:27.345Z,27.00
2018-06-09T20:05:55.330Z,27.10
2018-06-09T20:08:23.406Z,27.10
2018-06-09T20:10:51.715Z,27.10
2018-06-09T20:13:19.853Z,27.00
2018-06-09T20:15:48.674Z,27.00
2018-06-09T20:18:16.751Z,26.90
2018-06-09T20:20:44.820Z,26.90
2018-06-09T20:23:12.899Z,26.90
2018-06-09T20:25:40.962Z,26.80
2018-06-09T20:28:09.624Z,26.90
2018-06-09T20:30:37.682Z,26.90
2018-06-09T20:33:05.759Z,26.90
2018-06-09T20:35:33.819Z,26.80
2018-06-09T20:38:01.891Z,26.80
2018-06-09T20:40:29.994Z,26.80
2018-06-09T20:42:58.243Z,26.70
2018-06-09T20:45:26.298Z,26.70
2018-06-09T20:47:54.366Z,26.70
2018-06-09T20:50:22.444Z,26.70
2018-06-09T20:52:50.509Z,26.60
2018-06-09T20:55:18.586Z,26.60
2018-06-09T20:57:46.642Z,26.50
2018-06-09T21:00:14.719Z,26.50
2018-06-09T21:02:42.787Z,26.50
2018-06-09T21:05:10.874Z,26.50
2018-06-09T21:07:38.942Z,26.50
2018-06-09T21:10:07.018Z,26.50
2018-06-09T21:12:35.090Z,26.40
2018-06-09T21:15:03.427Z,26.40
2018-06-09T21:17:31.482Z,26.40
2018-06-09T21:19:59.576Z,26.30
2018-06-09T21:22:27.670Z,26.30
2018-06-09T21:24:55.755Z,26.30
2018-06-09T21:27:29.195Z,26.30
2018-06-09T21:29:57.874Z,26.30
2018-06-09T21:32:28.463Z,26.30
2018-06-09T21:35:12.378Z,26.30
2018-06-09T21:37:46.984Z,26.30
2018-06-09T21:40:20.998Z,26.40
2018-06-09T21:42:54.874Z,26.40
2018-06-09T21:45:24.350Z,26.50
2018-06-09T21:47:52.494Z,26.50
2018-06-09T21:50:20.975Z,26.60
2018-06-09T21:52:49.047Z,26.70
2018-06-09T21:55:17.107Z,26.70
2018-06-09T21:57:45.175Z,26.60
2018-06-09T22:00:13.252Z,26.60
2018-06-09T22:02:41.303Z,26.60
2018-06-09T22:05:09.389Z,26.60
2018-06-09T22:10:05.667Z,26.70
2018-06-09T22:12:34.128Z,26.70
2018-06-09T22:15:02.208Z,26.70
2018-06-09T22:17:30.278Z,26.80
2018-06-09T22:19:58.356Z,26.80
2018-06-09T22:22:26.433Z,26.70
2018-06-09T22:24:54.597Z,26.70
2018-06-09T22:27:22.893Z,26.70
2018-06-09T22:29:50.959Z,26.70
2018-06-09T22:32:19.018Z,26.70
2018-06-09T22:34:47.379Z,26.70
2018-06-09T22:37:15.436Z,26.70
2018-06-09T22:39:43.487Z,26.70
2018-06-09T22:42:11.802Z,26.70
2018-06-09T22:44:39.881Z,26.70
2018-06-09T22:47:07.947Z,26.60
2018-06-09T22:49:36.302Z,26.60
2018-06-09T22:52:04.390Z,26.60
2018-06-09T22:54:32.458Z,26.70
2018-06-09T22:57:00.775Z,26.60
2018-06-09T22:59:28.839Z,26.60
2018-06-09T23:01:57.135Z,26.60
2018-06-09T23:04:25.207Z,26.50
2018-06-09T23:06:53.276Z,26.50
2018-06-09T23:09:21.331Z,26.50
2018-06-09T23:11:49.391Z,26.40
2018-06-09T23:14:17.735Z,26.30
2018-06-09T23:16:45.815Z,26.10
2018-06-09T23:19:13.882Z,26.00
2018-06-09T23:21:41.957Z,26.00
2018-06-09T23:24:10.034Z,25.90
2018-06-09T23:26:38.118Z,25.90
2018-06-09T23:29:06.186Z,25.90
2018-06-09T23:31:34.262Z,25.90
2018-06-09T23:34:02.335Z,26.00
2018-06-09T23:36:30.414Z,26.00
2018-06-09T23:38:58.494Z,26.00
2018-06-09T23:41:26.814Z,26.10
2018-06-09T23:43:54.886Z,26.10
2018-06-09T23:46:22.962Z,26.00
2018-06-09T23:48:51.026Z,26.00
2018-06-09T23:51:19.207Z,25.90
2018-06-09T23:53:47.277Z,25.80
2018-06-09T23:56:15.395Z,25.70
2018-06-09T23:58:43.426Z,25.70
